sensor_id;sensor_type;location;lat;lon;timestamp;P1;durP1;ratioP1;P2;durP2;ratioP2
74867;SDS011;63419;42.262;12.210;2022-11-20T00:02:23;11.70;;;5.38;;
74867;SDS011;63419;42.262;12.210;2022-11-20T00:05:03;11.94;;;6.27;;
74867;SDS011;63419;42.262;12.210;2022-11-20T00:07:39;12.70;;;5.97;;
74867;SDS011;63419;42.262;12.210;2022-11-20T00:10:07;13.52;;;6.32;;
74867;SDS011;63419;42.262;12.210;2022-11-20T00:12:39;14.07;;;7.18;;
74867;SDS011;63419;42.262;12.210;2022-11-20T00:15:11;11.68;;;6.93;;
74867;SDS011;63419;42.262;12.210;2022-11-20T00:17:39;10.13;;;4.85;;
74867;SDS011;63419;42.262;12.210;2022-11-20T00:20:07;10.10;;;4.93;;
74867;SDS011;63419;42.262;12.210;2022-11-20T00:22:37;8.43;;;3.80;;
74867;SDS011;63419;42.262;12.210;2022-11-20T00:25:08;8.05;;;3.17;;
74867;SDS011;63419;42.262;12.210;2022-11-20T00:27:39;8.23;;;2.92;;
74867;SDS011;63419;42.262;12.210;2022-11-20T00:30:13;7.53;;;3.00;;
74867;SDS011;63419;42.262;12.210;2022-11-20T00:32:47;8.50;;;2.80;;
74867;SDS011;63419;42.262;12.210;2022-11-20T00:35:14;5.85;;;2.38;;
74867;SDS011;63419;42.262;12.210;2022-11-20T00:37:42;6.40;;;2.17;;
74867;SDS011;63419;42.262;12.210;2022-11-20T00:40:10;8.35;;;1.83;;
74867;SDS011;63419;42.262;12.210;2022-11-20T00:42:46;5.78;;;1.88;;
74867;SDS011;63419;42.262;12.210;2022-11-20T00:45:15;5.40;;;1.98;;
74867;SDS011;63419;42.262;12.210;2022-11-20T00:47:45;6.20;;;2.38;;
74867;SDS011;63419;42.262;12.210;2022-11-20T00:50:13;8.27;;;3.13;;
74867;SDS011;63419;42.262;12.210;2022-11-20T00:52:47;5.28;;;1.80;;
74867;SDS011;63419;42.262;12.210;2022-11-20T00:55:17;7.18;;;2.25;;
74867;SDS011;63419;42.262;12.210;2022-11-20T00:57:47;7.68;;;3.45;;
74867;SDS011;63419;42.262;12.210;2022-11-20T01:00:15;4.93;;;1.80;;
74867;SDS011;63419;42.262;12.210;2022-11-20T01:02:47;4.57;;;1.50;;
74867;SDS011;63419;42.262;12.210;2022-11-20T01:05:18;4.35;;;1.25;;
74867;SDS011;63419;42.262;12.210;2022-11-20T01:07:46;8.27;;;4.68;;
74867;SDS011;63419;42.262;12.210;2022-11-20T01:10:14;5.88;;;3.38;;
74867;SDS011;63419;42.262;12.210;2022-11-20T01:12:47;6.43;;;3.28;;
74867;SDS011;63419;42.262;12.210;2022-11-20T01:15:48;4.80;;;1.60;;
74867;SDS011;63419;42.262;12.210;2022-11-20T01:18:22;4.35;;;1.60;;
74867;SDS011;63419;42.262;12.210;2022-11-20T01:20:53;5.55;;;2.72;;
74867;SDS011;63419;42.262;12.210;2022-11-20T01:23:26;4.45;;;1.35;;
74867;SDS011;63419;42.262;12.210;2022-11-20T01:26:01;6.63;;;1.40;;
74867;SDS011;63419;42.262;12.210;2022-11-20T01:28:39;5.18;;;2.42;;
74867;SDS011;63419;42.262;12.210;2022-11-20T01:34:00;9.63;;;6.38;;
74867;SDS011;63419;42.262;12.210;2022-11-20T01:36:35;10.18;;;7.75;;
74867;SDS011;63419;42.262;12.210;2022-11-20T01:39:13;5.45;;;2.25;;
74867;SDS011;63419;42.262;12.210;2022-11-20T01:41:48;3.50;;;0.85;;
74867;SDS011;63419;42.262;12.210;2022-11-20T01:47:31;4.03;;;1.20;;
74867;SDS011;63419;42.262;12.210;2022-11-20T01:50:43;5.90;;;0.82;;
74867;SDS011;63419;42.262;12.210;2022-11-20T01:53:05;5.03;;;1.42;;
74867;SDS011;63419;42.262;12.210;2022-11-20T01:55:45;4.25;;;1.15;;
74867;SDS011;63419;42.262;12.210;2022-11-20T01:58:31;4.47;;;1.33;;
74867;SDS011;63419;42.262;12.210;2022-11-20T02:01:04;5.88;;;1.52;;
74867;SDS011;63419;42.262;12.210;2022-11-20T02:03:33;4.60;;;1.25;;
74867;SDS011;63419;42.262;12.210;2022-11-20T02:06:23;3.67;;;0.97;;
74867;SDS011;63419;42.262;12.210;2022-11-20T02:09:04;5.80;;;0.93;;
74867;SDS011;63419;42.262;12.210;2022-11-20T02:11:33;4.00;;;0.93;;
74867;SDS011;63419;42.262;12.210;2022-11-20T02:14:02;3.15;;;0.80;;
74867;SDS011;63419;42.262;12.210;2022-11-20T02:16:32;3.65;;;1.08;;
74867;SDS011;63419;42.262;12.210;2022-11-20T02:19:07;4.95;;;1.10;;
74867;SDS011;63419;42.262;12.210;2022-11-20T02:22:01;3.97;;;1.00;;
74867;SDS011;63419;42.262;12.210;2022-11-20T02:24:58;3.83;;;0.77;;
74867;SDS011;63419;42.262;12.210;2022-11-20T02:27:37;3.13;;;0.77;;
74867;SDS011;63419;42.262;12.210;2022-11-20T02:30:07;3.75;;;0.90;;
74867;SDS011;63419;42.262;12.210;2022-11-20T02:32:43;3.97;;;0.90;;
74867;SDS011;63419;42.262;12.210;2022-11-20T02:37:49;2.75;;;0.55;;
74867;SDS011;63419;42.262;12.210;2022-11-20T02:40:22;3.35;;;0.80;;
74867;SDS011;63419;42.262;12.210;2022-11-20T02:42:53;3.03;;;0.70;;
74867;SDS011;63419;42.262;12.210;2022-11-20T02:45:24;3.28;;;0.80;;
74867;SDS011;63419;42.262;12.210;2022-11-20T02:47:55;3.60;;;0.90;;
74867;SDS011;63419;42.262;12.210;2022-11-20T02:50:26;2.67;;;0.63;;
74867;SDS011;63419;42.262;12.210;2022-11-20T02:53:04;2.70;;;0.63;;
74867;SDS011;63419;42.262;12.210;2022-11-20T02:55:34;3.78;;;0.70;;
74867;SDS011;63419;42.262;12.210;2022-11-20T02:58:03;2.17;;;0.40;;
74867;SDS011;63419;42.262;12.210;2022-11-20T03:00:37;3.10;;;0.70;;
74867;SDS011;63419;42.262;12.210;2022-11-20T03:03:13;2.80;;;0.60;;
74867;SDS011;63419;42.262;12.210;2022-11-20T03:05:46;6.88;;;0.93;;
74867;SDS011;63419;42.262;12.210;2022-11-20T03:08:19;96.47;;;3.00;;
74867;SDS011;63419;42.262;12.210;2022-11-20T03:10:51;46.33;;;1.83;;
74867;SDS011;63419;42.262;12.210;2022-11-20T03:13:24;12.43;;;1.30;;
74867;SDS011;63419;42.262;12.210;2022-11-20T03:15:54;3.25;;;0.80;;
74867;SDS011;63419;42.262;12.210;2022-11-20T03:18:30;4.80;;;0.70;;
74867;SDS011;63419;42.262;12.210;2022-11-20T03:23:30;3.15;;;0.57;;
74867;SDS011;63419;42.262;12.210;2022-11-20T03:26:18;4.70;;;0.75;;
74867;SDS011;63419;42.262;12.210;2022-11-20T03:28:51;2.20;;;0.43;;
74867;SDS011;63419;42.262;12.210;2022-11-20T03:31:24;2.75;;;0.60;;
74867;SDS011;63419;42.262;12.210;2022-11-20T03:34:13;3.03;;;0.80;;
74867;SDS011;63419;42.262;12.210;2022-11-20T03:36:47;3.63;;;0.90;;
74867;SDS011;63419;42.262;12.210;2022-11-20T03:39:17;3.08;;;0.65;;
74867;SDS011;63419;42.262;12.210;2022-11-20T03:41:47;3.42;;;0.63;;
74867;SDS011;63419;42.262;12.210;2022-11-20T03:44:17;3.85;;;1.00;;
74867;SDS011;63419;42.262;12.210;2022-11-20T03:46:49;3.25;;;0.93;;
74867;SDS011;63419;42.262;12.210;2022-11-20T03:49:16;4.85;;;0.68;;
74867;SDS011;63419;42.262;12.210;2022-11-20T03:51:45;4.05;;;0.90;;
74867;SDS011;63419;42.262;12.210;2022-11-20T03:54:14;3.72;;;1.00;;
74867;SDS011;63419;42.262;12.210;2022-11-20T03:56:48;2.80;;;0.65;;
74867;SDS011;63419;42.262;12.210;2022-11-20T03:59:19;5.13;;;0.80;;
74867;SDS011;63419;42.262;12.210;2022-11-20T04:01:49;3.53;;;0.93;;
74867;SDS011;63419;42.262;12.210;2022-11-20T04:04:31;3.95;;;1.10;;
74867;SDS011;63419;42.262;12.210;2022-11-20T04:06:59;4.95;;;1.20;;
74867;SDS011;63419;42.262;12.210;2022-11-20T04:09:33;3.63;;;0.93;;
74867;SDS011;63419;42.262;12.210;2022-11-20T04:12:06;3.30;;;0.90;;
74867;SDS011;63419;42.262;12.210;2022-11-20T04:14:39;4.55;;;1.10;;
74867;SDS011;63419;42.262;12.210;2022-11-20T04:17:11;4.15;;;0.98;;
74867;SDS011;63419;42.262;12.210;2022-11-20T04:19:49;3.28;;;0.90;;
74867;SDS011;63419;42.262;12.210;2022-11-20T04:22:17;3.17;;;0.80;;
74867;SDS011;63419;42.262;12.210;2022-11-20T04:24:45;3.20;;;0.90;;
74867;SDS011;63419;42.262;12.210;2022-11-20T04:27:12;5.50;;;0.90;;
74867;SDS011;63419;42.262;12.210;2022-11-20T04:29:52;3.42;;;0.95;;
74867;SDS011;63419;42.262;12.210;2022-11-20T04:32:23;6.25;;;1.30;;
74867;SDS011;63419;42.262;12.210;2022-11-20T04:34:53;4.57;;;1.60;;
74867;SDS011;63419;42.262;12.210;2022-11-20T04:40:00;4.20;;;1.13;;
74867;SDS011;63419;42.262;12.210;2022-11-20T04:42:29;6.13;;;1.63;;
74867;SDS011;63419;42.262;12.210;2022-11-20T04:45:00;4.00;;;1.38;;
74867;SDS011;63419;42.262;12.210;2022-11-20T04:47:31;5.03;;;1.73;;
74867;SDS011;63419;42.262;12.210;2022-11-20T04:50:06;5.68;;;1.80;;
74867;SDS011;63419;42.262;12.210;2022-11-20T04:52:34;5.50;;;1.77;;
74867;SDS011;63419;42.262;12.210;2022-11-20T04:55:05;14.35;;;2.00;;
74867;SDS011;63419;42.262;12.210;2022-11-20T05:00:03;4.28;;;0.93;;
74867;SDS011;63419;42.262;12.210;2022-11-20T05:02:35;3.60;;;1.10;;
74867;SDS011;63419;42.262;12.210;2022-11-20T05:07:35;3.90;;;1.00;;
74867;SDS011;63419;42.262;12.210;2022-11-20T05:10:03;11.82;;;1.38;;
74867;SDS011;63419;42.262;12.210;2022-11-20T05:12:31;7.20;;;1.58;;
74867;SDS011;63419;42.262;12.210;2022-11-20T05:15:04;6.05;;;1.25;;
74867;SDS011;63419;42.262;12.210;2022-11-20T05:17:36;4.00;;;1.10;;
74867;SDS011;63419;42.262;12.210;2022-11-20T05:20:06;6.25;;;1.50;;
74867;SDS011;63419;42.262;12.210;2022-11-20T05:22:39;5.30;;;1.92;;
74867;SDS011;63419;42.262;12.210;2022-11-20T05:25:09;8.80;;;2.17;;
74867;SDS011;63419;42.262;12.210;2022-11-20T05:27:44;4.38;;;1.27;;
74867;SDS011;63419;42.262;12.210;2022-11-20T05:30:12;4.88;;;1.70;;
74867;SDS011;63419;42.262;12.210;2022-11-20T05:32:40;4.78;;;1.58;;
74867;SDS011;63419;42.262;12.210;2022-11-20T05:35:09;4.10;;;1.20;;
74867;SDS011;63419;42.262;12.210;2022-11-20T05:37:37;8.45;;;1.30;;
74867;SDS011;63419;42.262;12.210;2022-11-20T05:40:16;5.50;;;1.38;;
74867;SDS011;63419;42.262;12.210;2022-11-20T05:42:47;6.25;;;1.52;;
74867;SDS011;63419;42.262;12.210;2022-11-20T05:45:15;4.45;;;1.30;;
74867;SDS011;63419;42.262;12.210;2022-11-20T05:47:51;6.18;;;1.25;;
74867;SDS011;63419;42.262;12.210;2022-11-20T05:50:22;4.18;;;1.25;;
74867;SDS011;63419;42.262;12.210;2022-11-20T05:55:19;4.13;;;1.15;;
74867;SDS011;63419;42.262;12.210;2022-11-20T05:57:52;4.00;;;1.10;;
74867;SDS011;63419;42.262;12.210;2022-11-20T06:00:22;4.75;;;1.35;;
74867;SDS011;63419;42.262;12.210;2022-11-20T06:02:50;5.15;;;1.42;;
74867;SDS011;63419;42.262;12.210;2022-11-20T06:05:27;5.25;;;1.50;;
74867;SDS011;63419;42.262;12.210;2022-11-20T06:07:54;4.40;;;1.42;;
74867;SDS011;63419;42.262;12.210;2022-11-20T06:10:24;2.83;;;0.70;;
74867;SDS011;63419;42.262;12.210;2022-11-20T06:15:25;3.05;;;0.73;;
74867;SDS011;63419;42.262;12.210;2022-11-20T06:17:56;1.23;;;0.20;;
74867;SDS011;63419;42.262;12.210;2022-11-20T06:20:29;1.08;;;0.25;;
74867;SDS011;63419;42.262;12.210;2022-11-20T06:23:06;1.08;;;0.20;;
74867;SDS011;63419;42.262;12.210;2022-11-20T06:25:37;0.90;;;0.20;;
74867;SDS011;63419;42.262;12.210;2022-11-20T06:28:10;0.95;;;0.20;;
74867;SDS011;63419;42.262;12.210;2022-11-20T06:30:38;0.82;;;0.20;;
74867;SDS011;63419;42.262;12.210;2022-11-20T06:33:13;1.08;;;0.20;;
74867;SDS011;63419;42.262;12.210;2022-11-20T06:35:44;2.33;;;0.45;;
74867;SDS011;63419;42.262;12.210;2022-11-20T06:38:11;0.57;;;0.13;;
74867;SDS011;63419;42.262;12.210;2022-11-20T06:40:41;0.47;;;0.10;;
74867;SDS011;63419;42.262;12.210;2022-11-20T06:43:12;0.65;;;0.10;;
74867;SDS011;63419;42.262;12.210;2022-11-20T06:45:45;2.00;;;0.52;;
74867;SDS011;63419;42.262;12.210;2022-11-20T06:48:13;1.45;;;0.30;;
74867;SDS011;63419;42.262;12.210;2022-11-20T06:50:40;1.63;;;0.25;;
74867;SDS011;63419;42.262;12.210;2022-11-20T06:53:07;1.15;;;0.20;;
74867;SDS011;63419;42.262;12.210;2022-11-20T06:55:37;0.65;;;0.10;;
74867;SDS011;63419;42.262;12.210;2022-11-20T06:58:12;1.40;;;0.20;;
74867;SDS011;63419;42.262;12.210;2022-11-20T07:00:41;2.53;;;0.25;;
74867;SDS011;63419;42.262;12.210;2022-11-20T07:03:11;1.20;;;0.22;;
74867;SDS011;63419;42.262;12.210;2022-11-20T07:05:44;1.67;;;0.30;;
74867;SDS011;63419;42.262;12.210;2022-11-20T07:08:16;1.23;;;0.30;;
74867;SDS011;63419;42.262;12.210;2022-11-20T07:10:44;0.65;;;0.10;;
74867;SDS011;63419;42.262;12.210;2022-11-20T07:13:22;1.63;;;0.30;;
74867;SDS011;63419;42.262;12.210;2022-11-20T07:15:52;1.00;;;0.10;;
74867;SDS011;63419;42.262;12.210;2022-11-20T07:18:26;1.20;;;0.28;;
74867;SDS011;63419;42.262;12.210;2022-11-20T07:21:04;1.35;;;0.20;;
74867;SDS011;63419;42.262;12.210;2022-11-20T07:23:42;0.70;;;0.10;;
74867;SDS011;63419;42.262;12.210;2022-11-20T07:26:10;2.92;;;0.20;;
74867;SDS011;63419;42.262;12.210;2022-11-20T07:28:43;1.30;;;0.25;;
74867;SDS011;63419;42.262;12.210;2022-11-20T07:31:16;0.70;;;0.20;;
74867;SDS011;63419;42.262;12.210;2022-11-20T07:33:54;2.83;;;0.43;;
74867;SDS011;63419;42.262;12.210;2022-11-20T07:36:24;1.73;;;0.20;;
74867;SDS011;63419;42.262;12.210;2022-11-20T07:39:00;2.97;;;0.35;;
74867;SDS011;63419;42.262;12.210;2022-11-20T07:41:30;1.27;;;0.30;;
74867;SDS011;63419;42.262;12.210;2022-11-20T07:44:10;1.27;;;0.20;;
74867;SDS011;63419;42.262;12.210;2022-11-20T07:46:40;2.88;;;0.28;;
74867;SDS011;63419;42.262;12.210;2022-11-20T07:49:11;2.60;;;0.50;;
74867;SDS011;63419;42.262;12.210;2022-11-20T07:51:54;1.77;;;0.30;;
74867;SDS011;63419;42.262;12.210;2022-11-20T07:54:32;3.92;;;0.40;;
74867;SDS011;63419;42.262;12.210;2022-11-20T07:57:05;1.75;;;0.40;;
74867;SDS011;63419;42.262;12.210;2022-11-20T07:59:36;1.77;;;0.32;;
74867;SDS011;63419;42.262;12.210;2022-11-20T08:02:03;2.10;;;0.30;;
74867;SDS011;63419;42.262;12.210;2022-11-20T08:07:07;1.98;;;0.20;;
74867;SDS011;63419;42.262;12.210;2022-11-20T08:09:43;2.65;;;0.22;;
74867;SDS011;63419;42.262;12.210;2022-11-20T08:12:20;1.33;;;0.30;;
74867;SDS011;63419;42.262;12.210;2022-11-20T08:15:08;1.88;;;0.52;;
74867;SDS011;63419;42.262;12.210;2022-11-20T08:17:48;1.67;;;0.20;;
74867;SDS011;63419;42.262;12.210;2022-11-20T08:20:47;1.63;;;0.20;;
74867;SDS011;63419;42.262;12.210;2022-11-20T08:23:27;0.85;;;0.30;;
74867;SDS011;63419;42.262;12.210;2022-11-20T08:26:03;0.93;;;0.20;;
74867;SDS011;63419;42.262;12.210;2022-11-20T08:28:30;0.95;;;0.10;;
74867;SDS011;63419;42.262;12.210;2022-11-20T08:31:02;0.65;;;0.10;;
74867;SDS011;63419;42.262;12.210;2022-11-20T08:33:34;1.13;;;0.20;;
74867;SDS011;63419;42.262;12.210;2022-11-20T08:36:07;0.75;;;0.20;;
74867;SDS011;63419;42.262;12.210;2022-11-20T08:38:46;1.50;;;0.10;;
74867;SDS011;63419;42.262;12.210;2022-11-20T08:41:38;0.95;;;0.20;;
74867;SDS011;63419;42.262;12.210;2022-11-20T08:44:17;2.15;;;0.30;;
74867;SDS011;63419;42.262;12.210;2022-11-20T08:46:49;1.52;;;0.28;;
74867;SDS011;63419;42.262;12.210;2022-11-20T08:49:18;2.75;;;0.40;;
74867;SDS011;63419;42.262;12.210;2022-11-20T08:51:46;1.85;;;0.40;;
74867;SDS011;63419;42.262;12.210;2022-11-20T08:54:30;1.30;;;0.20;;
74867;SDS011;63419;42.262;12.210;2022-11-20T08:57:02;1.60;;;0.43;;
74867;SDS011;63419;42.262;12.210;2022-11-20T08:59:51;1.30;;;0.20;;
74867;SDS011;63419;42.262;12.210;2022-11-20T09:02:32;1.88;;;0.22;;
74867;SDS011;63419;42.262;12.210;2022-11-20T09:05:02;1.15;;;0.22;;
74867;SDS011;63419;42.262;12.210;2022-11-20T09:07:35;0.88;;;0.20;;
74867;SDS011;63419;42.262;12.210;2022-11-20T09:10:10;1.08;;;0.20;;
74867;SDS011;63419;42.262;12.210;2022-11-20T09:12:51;1.42;;;0.20;;
74867;SDS011;63419;42.262;12.210;2022-11-20T09:15:24;2.22;;;0.45;;
74867;SDS011;63419;42.262;12.210;2022-11-20T09:18:06;2.30;;;0.40;;
74867;SDS011;63419;42.262;12.210;2022-11-20T09:20:40;3.78;;;0.80;;
74867;SDS011;63419;42.262;12.210;2022-11-20T09:23:09;2.33;;;0.55;;
74867;SDS011;63419;42.262;12.210;2022-11-20T09:25:46;1.02;;;0.30;;
74867;SDS011;63419;42.262;12.210;2022-11-20T09:28:29;2.05;;;0.60;;
74867;SDS011;63419;42.262;12.210;2022-11-20T09:31:00;1.70;;;0.35;;
74867;SDS011;63419;42.262;12.210;2022-11-20T09:33:39;1.77;;;0.45;;
74867;SDS011;63419;42.262;12.210;2022-11-20T09:36:12;1.77;;;0.35;;
74867;SDS011;63419;42.262;12.210;2022-11-20T09:38:40;1.85;;;0.40;;
74867;SDS011;63419;42.262;12.210;2022-11-20T09:44:38;2.15;;;0.40;;
74867;SDS011;63419;42.262;12.210;2022-11-20T09:47:16;2.03;;;0.65;;
74867;SDS011;63419;42.262;12.210;2022-11-20T09:53:34;1.42;;;0.25;;
74867;SDS011;63419;42.262;12.210;2022-11-20T09:56:26;2.60;;;0.60;;
74867;SDS011;63419;42.262;12.210;2022-11-20T09:58:59;2.42;;;0.52;;
74867;SDS011;63419;42.262;12.210;2022-11-20T10:01:35;1.40;;;0.30;;
74867;SDS011;63419;42.262;12.210;2022-11-20T10:04:15;2.40;;;0.60;;
74867;SDS011;63419;42.262;12.210;2022-11-20T10:09:57;3.00;;;0.65;;
74867;SDS011;63419;42.262;12.210;2022-11-20T10:12:36;2.83;;;0.80;;
74867;SDS011;63419;42.262;12.210;2022-11-20T10:15:33;2.58;;;0.50;;
74867;SDS011;63419;42.262;12.210;2022-11-20T10:24:41;5.40;;;0.70;;
74867;SDS011;63419;42.262;12.210;2022-11-20T10:30:45;3.25;;;0.60;;
74867;SDS011;63419;42.262;12.210;2022-11-20T10:33:31;3.40;;;0.65;;
74867;SDS011;63419;42.262;12.210;2022-11-20T10:36:34;3.17;;;0.60;;
74867;SDS011;63419;42.262;12.210;2022-11-20T10:39:28;3.60;;;1.05;;
74867;SDS011;63419;42.262;12.210;2022-11-20T10:42:26;3.20;;;0.88;;
74867;SDS011;63419;42.262;12.210;2022-11-20T10:45:36;4.90;;;1.10;;
74867;SDS011;63419;42.262;12.210;2022-11-20T10:48:53;3.85;;;1.00;;
74867;SDS011;63419;42.262;12.210;2022-11-20T11:00:11;3.33;;;0.85;;
74867;SDS011;63419;42.262;12.210;2022-11-20T11:02:52;2.85;;;0.55;;
74867;SDS011;63419;42.262;12.210;2022-11-20T11:05:40;3.10;;;0.40;;
74867;SDS011;63419;42.262;12.210;2022-11-20T11:08:36;3.65;;;0.70;;
74867;SDS011;63419;42.262;12.210;2022-11-20T11:11:33;3.47;;;1.20;;
74867;SDS011;63419;42.262;12.210;2022-11-20T11:14:13;4.35;;;1.27;;
74867;SDS011;63419;42.262;12.210;2022-11-20T11:17:18;2.85;;;0.70;;
74867;SDS011;63419;42.262;12.210;2022-11-20T11:22:57;3.22;;;0.60;;
74867;SDS011;63419;42.262;12.210;2022-11-20T11:25:32;2.72;;;0.73;;
74867;SDS011;63419;42.262;12.210;2022-11-20T11:28:19;2.38;;;0.68;;
74867;SDS011;63419;42.262;12.210;2022-11-20T11:30:55;4.28;;;0.98;;
74867;SDS011;63419;42.262;12.210;2022-11-20T11:33:37;4.45;;;0.90;;
74867;SDS011;63419;42.262;12.210;2022-11-20T11:36:16;3.28;;;1.05;;
74867;SDS011;63419;42.262;12.210;2022-11-20T11:38:50;2.88;;;0.80;;
74867;SDS011;63419;42.262;12.210;2022-11-20T11:41:24;3.15;;;0.77;;
74867;SDS011;63419;42.262;12.210;2022-11-20T11:47:33;3.90;;;1.05;;
74867;SDS011;63419;42.262;12.210;2022-11-20T11:50:23;3.53;;;1.00;;
74867;SDS011;63419;42.262;12.210;2022-11-20T11:53:13;4.65;;;1.40;;
74867;SDS011;63419;42.262;12.210;2022-11-20T11:56:05;2.42;;;0.80;;
74867;SDS011;63419;42.262;12.210;2022-11-20T11:58:52;4.00;;;0.90;;
74867;SDS011;63419;42.262;12.210;2022-11-20T12:07:20;4.20;;;1.35;;
74867;SDS011;63419;42.262;12.210;2022-11-20T12:10:37;3.53;;;0.55;;
74867;SDS011;63419;42.262;12.210;2022-11-20T12:16:28;6.03;;;1.42;;
74867;SDS011;63419;42.262;12.210;2022-11-20T12:19:10;6.57;;;1.48;;
74867;SDS011;63419;42.262;12.210;2022-11-20T12:30:28;16.30;;;4.72;;
74867;SDS011;63419;42.262;12.210;2022-11-20T12:42:17;3.60;;;0.98;;
74867;SDS011;63419;42.262;12.210;2022-11-20T12:48:09;13.15;;;5.60;;
74867;SDS011;63419;42.262;12.210;2022-11-20T12:51:31;10.98;;;3.55;;
74867;SDS011;63419;42.262;12.210;2022-11-20T12:58:18;7.75;;;3.20;;
74867;SDS011;63419;42.262;12.210;2022-11-20T13:01:06;2.95;;;0.57;;
74867;SDS011;63419;42.262;12.210;2022-11-20T13:04:18;2.50;;;0.50;;
74867;SDS011;63419;42.262;12.210;2022-11-20T13:07:30;4.65;;;1.48;;
74867;SDS011;63419;42.262;12.210;2022-11-20T13:10:03;3.83;;;1.45;;
74867;SDS011;63419;42.262;12.210;2022-11-20T13:13:45;3.95;;;1.17;;
74867;SDS011;63419;42.262;12.210;2022-11-20T13:19:59;3.30;;;0.80;;
74867;SDS011;63419;42.262;12.210;2022-11-20T13:22:45;4.53;;;1.17;;
74867;SDS011;63419;42.262;12.210;2022-11-20T13:25:37;4.38;;;1.00;;
74867;SDS011;63419;42.262;12.210;2022-11-20T13:30:51;2.10;;;0.50;;
74867;SDS011;63419;42.262;12.210;2022-11-20T13:33:25;2.80;;;0.85;;
74867;SDS011;63419;42.262;12.210;2022-11-20T13:36:20;3.13;;;0.50;;
74867;SDS011;63419;42.262;12.210;2022-11-20T13:39:04;2.67;;;0.70;;
74867;SDS011;63419;42.262;12.210;2022-11-20T13:41:54;3.42;;;0.80;;
74867;SDS011;63419;42.262;12.210;2022-11-20T13:44:48;3.08;;;0.50;;
74867;SDS011;63419;42.262;12.210;2022-11-20T13:47:22;2.53;;;0.70;;
74867;SDS011;63419;42.262;12.210;2022-11-20T13:49:58;2.60;;;0.50;;
74867;SDS011;63419;42.262;12.210;2022-11-20T13:55:40;3.95;;;0.98;;
74867;SDS011;63419;42.262;12.210;2022-11-20T14:01:57;3.35;;;0.70;;
74867;SDS011;63419;42.262;12.210;2022-11-20T14:04:35;4.40;;;1.10;;
74867;SDS011;63419;42.262;12.210;2022-11-20T14:07:24;4.07;;;1.10;;
74867;SDS011;63419;42.262;12.210;2022-11-20T14:10:24;3.78;;;0.73;;
74867;SDS011;63419;42.262;12.210;2022-11-20T14:12:58;3.72;;;0.82;;
74867;SDS011;63419;42.262;12.210;2022-11-20T14:16:02;3.95;;;0.80;;
74867;SDS011;63419;42.262;12.210;2022-11-20T14:18:47;3.72;;;1.20;;
74867;SDS011;63419;42.262;12.210;2022-11-20T14:21:28;5.15;;;1.15;;
74867;SDS011;63419;42.262;12.210;2022-11-20T14:24:04;3.42;;;1.05;;
74867;SDS011;63419;42.262;12.210;2022-11-20T14:26:42;3.03;;;0.80;;
74867;SDS011;63419;42.262;12.210;2022-11-20T14:29:18;4.03;;;1.40;;
74867;SDS011;63419;42.262;12.210;2022-11-20T14:32:08;4.43;;;1.50;;
74867;SDS011;63419;42.262;12.210;2022-11-20T14:34:46;2.45;;;0.80;;
74867;SDS011;63419;42.262;12.210;2022-11-20T14:37:21;4.20;;;0.95;;
74867;SDS011;63419;42.262;12.210;2022-11-20T14:43:19;3.58;;;1.10;;
74867;SDS011;63419;42.262;12.210;2022-11-20T14:45:58;3.42;;;1.23;;
74867;SDS011;63419;42.262;12.210;2022-11-20T14:48:51;3.47;;;0.93;;
74867;SDS011;63419;42.262;12.210;2022-11-20T14:51:38;2.58;;;0.60;;
74867;SDS011;63419;42.262;12.210;2022-11-20T14:56:55;3.50;;;0.85;;
74867;SDS011;63419;42.262;12.210;2022-11-20T14:59:26;3.22;;;0.80;;
74867;SDS011;63419;42.262;12.210;2022-11-20T15:04:49;2.67;;;0.52;;
74867;SDS011;63419;42.262;12.210;2022-11-20T15:07:29;2.33;;;0.68;;
74867;SDS011;63419;42.262;12.210;2022-11-20T15:10:22;3.50;;;1.23;;
74867;SDS011;63419;42.262;12.210;2022-11-20T15:13:00;5.18;;;1.33;;
74867;SDS011;63419;42.262;12.210;2022-11-20T15:15:56;3.83;;;1.10;;
74867;SDS011;63419;42.262;12.210;2022-11-20T15:18:48;4.10;;;1.15;;
74867;SDS011;63419;42.262;12.210;2022-11-20T15:21:26;4.43;;;1.05;;
74867;SDS011;63419;42.262;12.210;2022-11-20T15:23:57;5.03;;;1.30;;
74867;SDS011;63419;42.262;12.210;2022-11-20T15:26:28;5.32;;;1.83;;
74867;SDS011;63419;42.262;12.210;2022-11-20T15:29:01;4.15;;;1.00;;
74867;SDS011;63419;42.262;12.210;2022-11-20T15:31:49;5.60;;;2.13;;
74867;SDS011;63419;42.262;12.210;2022-11-20T15:34:38;6.10;;;1.90;;
74867;SDS011;63419;42.262;12.210;2022-11-20T15:37:10;4.97;;;1.65;;
74867;SDS011;63419;42.262;12.210;2022-11-20T15:39:40;4.40;;;1.75;;
74867;SDS011;63419;42.262;12.210;2022-11-20T15:42:12;5.85;;;1.60;;
74867;SDS011;63419;42.262;12.210;2022-11-20T15:44:45;3.90;;;1.23;;
74867;SDS011;63419;42.262;12.210;2022-11-20T15:47:18;6.45;;;1.10;;
74867;SDS011;63419;42.262;12.210;2022-11-20T15:49:57;4.22;;;0.80;;
74867;SDS011;63419;42.262;12.210;2022-11-20T15:52:32;3.72;;;0.75;;
74867;SDS011;63419;42.262;12.210;2022-11-20T15:55:10;3.20;;;0.77;;
74867;SDS011;63419;42.262;12.210;2022-11-20T15:57:51;3.20;;;0.50;;
74867;SDS011;63419;42.262;12.210;2022-11-20T16:00:23;4.53;;;0.80;;
74867;SDS011;63419;42.262;12.210;2022-11-20T16:02:54;2.25;;;0.55;;
74867;SDS011;63419;42.262;12.210;2022-11-20T16:05:30;3.17;;;0.52;;
74867;SDS011;63419;42.262;12.210;2022-11-20T16:08:00;3.03;;;0.80;;
74867;SDS011;63419;42.262;12.210;2022-11-20T16:10:35;3.15;;;0.50;;
74867;SDS011;63419;42.262;12.210;2022-11-20T16:13:13;4.35;;;1.38;;
74867;SDS011;63419;42.262;12.210;2022-11-20T16:16:04;9.95;;;2.42;;
74867;SDS011;63419;42.262;12.210;2022-11-20T16:18:42;9.05;;;3.28;;
74867;SDS011;63419;42.262;12.210;2022-11-20T16:21:11;3.47;;;1.08;;
74867;SDS011;63419;42.262;12.210;2022-11-20T16:23:43;2.85;;;0.70;;
74867;SDS011;63419;42.262;12.210;2022-11-20T16:26:16;2.60;;;0.60;;
74867;SDS011;63419;42.262;12.210;2022-11-20T16:28:45;3.40;;;0.75;;
74867;SDS011;63419;42.262;12.210;2022-11-20T16:31:21;2.50;;;0.45;;
74867;SDS011;63419;42.262;12.210;2022-11-20T16:33:51;4.15;;;1.38;;
74867;SDS011;63419;42.262;12.210;2022-11-20T16:36:40;3.38;;;0.63;;
74867;SDS011;63419;42.262;12.210;2022-11-20T16:39:15;5.30;;;1.10;;
74867;SDS011;63419;42.262;12.210;2022-11-20T16:41:49;2.28;;;0.43;;
74867;SDS011;63419;42.262;12.210;2022-11-20T16:44:19;4.25;;;0.88;;
74867;SDS011;63419;42.262;12.210;2022-11-20T16:46:49;3.08;;;0.77;;
74867;SDS011;63419;42.262;12.210;2022-11-20T16:49:20;5.68;;;1.33;;
74867;SDS011;63419;42.262;12.210;2022-11-20T16:51:52;2.20;;;0.43;;
74867;SDS011;63419;42.262;12.210;2022-11-20T16:54:22;3.50;;;0.90;;
74867;SDS011;63419;42.262;12.210;2022-11-20T16:56:56;2.45;;;0.47;;
74867;SDS011;63419;42.262;12.210;2022-11-20T16:59:27;2.42;;;0.60;;
74867;SDS011;63419;42.262;12.210;2022-11-20T17:02:01;3.30;;;0.95;;
74867;SDS011;63419;42.262;12.210;2022-11-20T17:04:31;2.25;;;0.52;;
74867;SDS011;63419;42.262;12.210;2022-11-20T17:07:13;4.70;;;0.73;;
74867;SDS011;63419;42.262;12.210;2022-11-20T17:09:45;5.20;;;0.90;;
74867;SDS011;63419;42.262;12.210;2022-11-20T17:12:19;2.67;;;0.57;;
74867;SDS011;63419;42.262;12.210;2022-11-20T17:14:54;3.08;;;0.45;;
74867;SDS011;63419;42.262;12.210;2022-11-20T17:17:21;5.25;;;1.00;;
74867;SDS011;63419;42.262;12.210;2022-11-20T17:19:50;2.47;;;0.45;;
74867;SDS011;63419;42.262;12.210;2022-11-20T17:22:21;3.67;;;0.70;;
74867;SDS011;63419;42.262;12.210;2022-11-20T17:24:56;2.55;;;0.65;;
74867;SDS011;63419;42.262;12.210;2022-11-20T17:27:28;6.28;;;0.63;;